createdAt,value
2019-04-07T00:00:23.457Z,10.90
2019-04-07T00:01:27.604Z,10.90
2019-04-07T00:02:30.422Z,10.90
2019-04-07T00:03:33.316Z,10.90
2019-04-07T00:04:36.320Z,10.90
2019-04-07T00:05:39.795Z,10.90
2019-04-07T00:06:45.323Z,10.90
2019-04-07T00:07:48.582Z,10.90
2019-04-07T00:08:51.528Z,10.90
2019-04-07T00:09:54.690Z,10.80
2019-04-07T00:10:57.975Z,10.90
2019-04-07T00:12:01.932Z,10.90
2019-04-07T00:13:05.256Z,10.90
2019-04-07T00:14:10.413Z,10.90
2019-04-07T00:15:14.526Z,10.90
2019-04-07T00:16:19.062Z,10.90
2019-04-07T00:17:22.251Z,10.90
2019-04-07T00:18:25.819Z,10.90
2019-04-07T00:19:29.473Z,10.90
2019-04-07T00:20:32.514Z,10.90
2019-04-07T00:21:36.406Z,10.90
2019-04-07T00:22:40.620Z,10.80
2019-04-07T00:23:44.117Z,10.80
2019-04-07T00:24:47.123Z,10.80
2019-04-07T00:25:51.408Z,10.80
2019-04-07T00:26:55.255Z,10.80
2019-04-07T00:27:58.821Z,10.80
2019-04-07T00:29:01.921Z,10.80
2019-04-07T00:30:05.339Z,10.80
2019-04-07T00:31:08.795Z,10.90
2019-04-07T00:32:11.830Z,10.90
2019-04-07T00:33:15.168Z,10.90
2019-04-07T00:34:18.512Z,10.90
2019-04-07T00:35:30.966Z,10.80
2019-04-07T00:36:29.386Z,10.80
2019-04-07T00:37:34.227Z,10.80
2019-04-07T00:38:37.305Z,10.80
2019-04-07T00:39:43.477Z,10.80
2019-04-07T00:40:47.393Z,10.80
2019-04-07T00:41:51.871Z,10.80
2019-04-07T00:42:55.515Z,10.80
2019-04-07T00:43:59.451Z,10.80
2019-04-07T00:45:03.672Z,10.80
2019-04-07T00:46:08.787Z,10.80
2019-04-07T00:47:12.928Z,10.80
2019-04-07T00:48:16.858Z,10.80
2019-04-07T00:49:21.249Z,10.80
2019-04-07T00:50:27.155Z,10.80
2019-04-07T00:51:31.033Z,10.80
2019-04-07T00:52:36.077Z,10.70
2019-04-07T00:53:40.844Z,10.80
2019-04-07T00:54:45.895Z,10.80
2019-04-07T00:55:49.663Z,10.80
2019-04-07T00:56:52.799Z,10.80
2019-04-07T00:57:58.345Z,10.80
2019-04-07T00:59:02.674Z,10.80
2019-04-07T01:00:09.561Z,10.80
2019-04-07T01:01:16.428Z,10.80
2019-04-07T01:02:21.245Z,10.80
2019-04-07T01:03:25.018Z,10.80
2019-04-07T01:04:31.817Z,10.80
2019-04-07T01:05:38.500Z,10.80
2019-04-07T01:06:40.693Z,10.90
2019-04-07T01:07:43.837Z,10.90
2019-04-07T01:08:47.068Z,10.90
2019-04-07T01:09:50.766Z,10.90
2019-04-07T01:10:53.985Z,10.90
2019-04-07T01:11:59.510Z,10.90
2019-04-07T01:13:03.071Z,10.90
2019-04-07T01:14:07.026Z,10.90
2019-04-07T01:15:10.899Z,10.90
2019-04-07T01:16:14.650Z,10.90
2019-04-07T01:17:19.714Z,10.90
2019-04-07T01:18:23.166Z,11.00
2019-04-07T01:19:26.619Z,11.00
2019-04-07T01:20:30.584Z,11.10
2019-04-07T01:21:34.601Z,11.10
2019-04-07T01:22:38.207Z,11.10
2019-04-07T01:23:41.507Z,11.10
2019-04-07T01:24:45.222Z,11.10
2019-04-07T01:25:48.750Z,11.20
2019-04-07T01:26:51.754Z,11.20
2019-04-07T01:27:55.474Z,11.20
2019-04-07T01:28:59.254Z,11.20
2019-04-07T01:30:02.916Z,11.20
2019-04-07T01:31:07.251Z,11.20
2019-04-07T01:32:11.852Z,11.10
2019-04-07T01:33:15.332Z,11.10
2019-04-07T01:34:19.658Z,11.10
2019-04-07T01:35:23.857Z,11.10
2019-04-07T01:36:27.139Z,11.10
2019-04-07T01:37:30.704Z,11.20
2019-04-07T01:38:33.902Z,11.10
2019-04-07T01:39:38.282Z,11.10
2019-04-07T01:40:43.209Z,11.20
2019-04-07T01:42:14.768Z,11.20
2019-04-07T01:43:33.867Z,11.20
2019-04-07T01:44:59.289Z,11.20
2019-04-07T01:46:14.183Z,11.20
2019-04-07T01:47:23.100Z,11.30
2019-04-07T01:48:48.816Z,11.30
2019-04-07T01:50:11.143Z,11.30
2019-04-07T01:51:40.150Z,11.30
2019-04-07T01:53:11.358Z,11.30
2019-04-07T01:54:49.399Z,11.30
2019-04-07T01:56:04.114Z,11.30
2019-04-07T01:57:18.352Z,11.30
2019-04-07T01:58:36.984Z,11.30
2019-04-07T02:00:12.610Z,11.30
2019-04-07T02:01:36.283Z,11.30
2019-04-07T02:03:02.158Z,11.30
2019-04-07T02:04:13.850Z,11.30
2019-04-07T02:05:58.584Z,11.30
2019-04-07T02:07:14.520Z,11.20
2019-04-07T02:08:55.774Z,11.20
2019-04-07T02:10:18.841Z,11.20
2019-04-07T02:11:51.364Z,11.20
2019-04-07T02:13:13.733Z,11.10
2019-04-07T02:14:41.983Z,11.10
2019-04-07T02:16:04.895Z,11.10
2019-04-07T02:17:16.147Z,11.10
2019-04-07T02:18:38.861Z,11.10
2019-04-07T02:20:01.341Z,11.10
2019-04-07T02:21:27.522Z,11.10
2019-04-07T02:22:59.863Z,11.10
2019-04-07T02:24:23.476Z,11.10
2019-04-07T02:25:46.908Z,11.10
2019-04-07T02:27:07.793Z,11.10
2019-04-07T02:28:43.762Z,11.10
2019-04-07T02:29:54.545Z,11.10
2019-04-07T02:31:13.571Z,11.10
2019-04-07T02:32:35.674Z,11.10
2019-04-07T02:34:11.771Z,11.10
2019-04-07T02:35:44.954Z,11.10
2019-04-07T02:37:20.586Z,11.10
2019-04-07T02:38:31.916Z,11.10
2019-04-07T02:39:52.121Z,11.10
2019-04-07T02:41:30.598Z,11.00
2019-04-07T02:43:03.099Z,11.00
2019-04-07T02:44:31.496Z,11.00
2019-04-07T02:45:57.854Z,11.00
2019-04-07T02:47:26.320Z,11.00
2019-04-07T02:48:56.242Z,11.00
2019-04-07T02:50:15.533Z,11.00
2019-04-07T02:51:29.725Z,11.00
2019-04-07T02:52:43.962Z,10.90
2019-04-07T02:54:06.579Z,10.90
2019-04-07T02:55:48.657Z,10.90
2019-04-07T02:56:58.409Z,11.00
2019-04-07T02:58:21.564Z,10.90
2019-04-07T02:59:53.727Z,10.90
2019-04-07T03:01:18.040Z,10.90
2019-04-07T03:02:43.982Z,10.90
2019-04-07T03:04:03.197Z,10.90
2019-04-07T03:05:33.104Z,10.90
2019-04-07T03:06:58.791Z,10.90
2019-04-07T03:08:25.133Z,10.90
2019-04-07T03:10:03.286Z,10.90
2019-04-07T03:11:21.241Z,10.90
2019-04-07T03:12:43.444Z,10.90
2019-04-07T03:13:54.675Z,10.90
2019-04-07T03:15:23.177Z,10.80
2019-04-07T03:16:57.939Z,10.90
2019-04-07T03:18:19.983Z,10.90
2019-04-07T03:19:54.461Z,10.90
2019-04-07T03:21:20.176Z,10.90
2019-04-07T03:22:45.845Z,10.90
2019-04-07T03:24:19.341Z,10.90
2019-04-07T03:25:46.503Z,10.80
2019-04-07T03:27:15.582Z,10.80
2019-04-07T03:28:30.454Z,10.80
2019-04-07T03:30:13.367Z,10.80
2019-04-07T03:31:32.155Z,10.80
2019-04-07T03:32:54.907Z,10.80
2019-04-07T03:34:23.301Z,10.80
2019-04-07T03:35:41.050Z,10.80
2019-04-07T03:37:23.906Z,10.80
2019-04-07T03:38:37.380Z,10.80
2019-04-07T03:40:00.919Z,10.80
2019-04-07T03:41:24.601Z,10.80
2019-04-07T03:42:50.998Z,10.70
2019-04-07T03:44:12.849Z,10.70
2019-04-07T03:45:35.821Z,10.80
2019-04-07T03:46:59.646Z,10.80
2019-04-07T03:48:10.588Z,10.80
2019-04-07T03:49:25.465Z,10.70
2019-04-07T03:50:36.726Z,10.70
2019-04-07T03:52:09.920Z,10.70
2019-04-07T03:53:30.891Z,10.70
2019-04-07T03:54:54.838Z,10.70
2019-04-07T03:56:13.471Z,10.60
2019-04-07T03:57:47.964Z,10.70
2019-04-07T03:59:03.520Z,10.60
2019-04-07T04:00:20.930Z,10.70
2019-04-07T04:01:41.817Z,10.60
2019-04-07T04:03:00.329Z,10.60
2019-04-07T04:04:17.590Z,10.60
2019-04-07T04:05:30.472Z,10.60
2019-04-07T04:06:51.602Z,10.60
2019-04-07T04:08:00.918Z,10.50
2019-04-07T04:09:11.487Z,10.60
2019-04-07T04:10:36.476Z,10.60
2019-04-07T04:12:03.106Z,10.50
2019-04-07T04:13:23.087Z,10.50
2019-04-07T04:14:30.131Z,10.40
2019-04-07T04:15:41.306Z,10.50
2019-04-07T04:16:49.035Z,10.50
2019-04-07T04:17:51.845Z,10.50
2019-04-07T04:18:54.444Z,10.50
2019-04-07T04:19:57.357Z,10.60
2019-04-07T04:21:01.413Z,10.60
2019-04-07T04:22:04.216Z,10.60
2019-04-07T04:23:06.752Z,10.60
2019-04-07T04:24:09.424Z,10.60
2019-04-07T04:25:12.637Z,10.50
2019-04-07T04:26:15.457Z,10.50
2019-04-07T04:27:18.511Z,10.50
2019-04-07T04:28:21.877Z,10.50
2019-04-07T04:29:24.919Z,10.50
2019-04-07T04:30:27.728Z,10.40
2019-04-07T04:31:30.978Z,10.40
2019-04-07T04:32:34.005Z,10.40
2019-04-07T04:33:37.643Z,10.40
2019-04-07T04:34:41.019Z,10.40
2019-04-07T04:35:44.281Z,10.40
2019-04-07T04:36:47.985Z,10.40
2019-04-07T04:37:53.436Z,10.40
2019-04-07T04:38:55.555Z,10.30
2019-04-07T04:39:59.505Z,10.30
2019-04-07T04:41:05.337Z,10.30
2019-04-07T04:42:08.448Z,10.30
2019-04-07T04:43:13.637Z,10.30
2019-04-07T04:44:16.688Z,10.20
2019-04-07T04:45:19.399Z,10.20
2019-04-07T04:46:21.950Z,10.20
2019-04-07T04:47:25.541Z,10.20
2019-04-07T04:48:30.070Z,10.30
2019-04-07T04:49:32.582Z,10.20
2019-04-07T04:50:35.503Z,10.20
2019-04-07T04:51:39.542Z,10.20
2019-04-07T04:52:42.926Z,10.20
2019-04-07T04:53:45.939Z,10.20
2019-04-07T04:54:48.447Z,10.10
2019-04-07T04:55:51.503Z,10.10
2019-04-07T04:56:54.196Z,10.10
2019-04-07T04:57:57.774Z,10.10
2019-04-07T04:59:00.439Z,10.00
2019-04-07T05:00:04.205Z,10.10
2019-04-07T05:01:07.642Z,10.00
2019-04-07T05:02:10.772Z,10.00
2019-04-07T05:03:13.843Z,10.00
2019-04-07T05:04:17.439Z,10.10
2019-04-07T05:05:21.179Z,10.10
2019-04-07T05:06:26.500Z,10.10
2019-04-07T05:07:30.043Z,10.10
2019-04-07T05:08:32.954Z,10.10
2019-04-07T05:09:44.513Z,10.10
2019-04-07T05:10:40.553Z,10.10
2019-04-07T05:11:43.386Z,10.20
2019-04-07T05:12:46.219Z,10.10
2019-04-07T05:13:50.561Z,10.10
2019-04-07T05:14:54.789Z,10.20
2019-04-07T05:15:58.192Z,10.10
2019-04-07T05:17:00.803Z,10.10
2019-04-07T05:18:04.217Z,10.10
2019-04-07T05:19:07.017Z,10.10
2019-04-07T05:20:10.886Z,10.10
2019-04-07T05:21:13.686Z,10.10
2019-04-07T05:22:16.711Z,10.20
2019-04-07T05:23:20.579Z,10.20
2019-04-07T05:24:23.413Z,10.10
2019-04-07T05:25:26.183Z,10.20
2019-04-07T05:26:29.155Z,10.20
2019-04-07T05:27:31.863Z,10.10
2019-04-07T05:28:36.876Z,10.20
2019-04-07T05:29:39.147Z,10.20
2019-04-07T05:30:41.694Z,10.20
2019-04-07T05:31:44.814Z,10.20
2019-04-07T05:32:47.852Z,10.20
2019-04-07T05:33:51.022Z,10.30
2019-04-07T05:34:53.827Z,10.30
2019-04-07T05:35:56.378Z,10.30
2019-04-07T05:36:58.906Z,10.40
2019-04-07T05:38:04.809Z,10.30
2019-04-07T05:39:07.478Z,10.30
2019-04-07T05:40:10.324Z,10.30
2019-04-07T05:41:13.052Z,10.40
2019-04-07T05:42:15.979Z,10.30
2019-04-07T05:43:20.305Z,10.40
2019-04-07T05:44:23.220Z,10.30
2019-04-07T05:45:25.968Z,10.30
2019-04-07T05:46:28.553Z,10.40
2019-04-07T05:47:31.486Z,10.30
2019-04-07T05:48:37.060Z,10.40
2019-04-07T05:49:39.983Z,10.40
2019-04-07T05:50:42.548Z,10.40
2019-04-07T05:51:45.077Z,10.50
2019-04-07T05:52:47.705Z,10.50
2019-04-07T05:53:50.600Z,10.50
2019-04-07T05:54:53.405Z,10.50
2019-04-07T05:55:56.343Z,10.50
2019-04-07T05:57:01.242Z,10.60
2019-04-07T05:58:06.495Z,10.60
2019-04-07T05:59:09.918Z,10.60
2019-04-07T06:00:16.238Z,10.60
2019-04-07T06:01:21.728Z,10.70
2019-04-07T06:02:23.258Z,10.70
2019-04-07T06:03:26.374Z,10.70
2019-04-07T06:04:29.272Z,10.80
2019-04-07T06:05:33.423Z,10.80
2019-04-07T06:06:37.031Z,10.80
2019-04-07T06:07:41.481Z,10.90
2019-04-07T06:08:47.039Z,10.90
2019-04-07T06:09:51.258Z,10.90
2019-04-07T06:10:57.540Z,10.90
2019-04-07T06:11:57.976Z,10.90
2019-04-07T06:13:01.265Z,11.00
2019-04-07T06:14:04.210Z,11.00
2019-04-07T06:15:09.615Z,11.00
2019-04-07T06:16:12.957Z,11.00
2019-04-07T06:17:16.892Z,11.00
2019-04-07T06:18:19.518Z,11.00
2019-04-07T06:19:25.989Z,11.10
2019-04-07T06:20:29.006Z,11.10
2019-04-07T06:21:32.374Z,11.10
2019-04-07T06:22:35.050Z,11.10
2019-04-07T06:23:37.700Z,11.10
2019-04-07T06:24:40.658Z,11.10
2019-04-07T06:25:46.157Z,11.20
2019-04-07T06:26:50.284Z,11.20
2019-04-07T06:27:53.287Z,11.20
2019-04-07T06:28:58.431Z,11.20
2019-04-07T06:30:00.976Z,11.30
2019-04-07T06:31:04.732Z,11.30
2019-04-07T06:32:10.092Z,11.30
2019-04-07T06:33:13.387Z,11.30
2019-04-07T06:34:17.250Z,11.30
2019-04-07T06:35:20.088Z,11.30
2019-04-07T06:36:26.145Z,11.40
2019-04-07T06:37:29.456Z,11.40
2019-04-07T06:38:35.769Z,11.50
2019-04-07T06:39:39.019Z,11.50
2019-04-07T06:40:41.635Z,11.50
2019-04-07T06:41:44.385Z,11.60
2019-04-07T06:42:47.548Z,11.60
2019-04-07T06:43:50.682Z,11.70
2019-04-07T06:44:54.231Z,11.70
2019-04-07T06:46:26.097Z,11.70
2019-04-07T06:47:37.131Z,11.80
2019-04-07T06:48:59.579Z,11.90
2019-04-07T06:50:17.888Z,11.90
2019-04-07T06:51:34.597Z,12.00
2019-04-07T06:52:56.890Z,12.00
2019-04-07T06:54:31.142Z,12.10
2019-04-07T06:56:11.577Z,12.20
2019-04-07T06:57:46.872Z,12.30
2019-04-07T06:59:15.600Z,12.40
2019-04-07T07:00:46.704Z,12.50
2019-04-07T07:02:02.238Z,12.50
2019-04-07T07:03:33.527Z,12.60
2019-04-07T07:04:54.151Z,12.60
2019-04-07T07:06:31.912Z,12.70
2019-04-07T07:07:54.797Z,12.70
2019-04-07T07:09:16.493Z,12.80
2019-04-07T07:10:44.605Z,12.80
2019-04-07T07:12:18.060Z,12.90
2019-04-07T07:13:35.761Z,12.90
2019-04-07T07:14:58.321Z,12.90
2019-04-07T07:16:33.903Z,13.00
2019-04-07T07:17:51.058Z,13.00
2019-04-07T07:19:20.579Z,13.00
2019-04-07T07:20:41.475Z,13.10
2019-04-07T07:21:50.065Z,13.10
2019-04-07T07:23:00.450Z,13.20
2019-04-07T07:24:02.568Z,13.20
2019-04-07T07:25:05.628Z,13.30
2019-04-07T07:26:08.317Z,13.30
2019-04-07T07:27:12.163Z,13.30
2019-04-07T07:28:18.497Z,13.40
2019-04-07T07:29:22.377Z,13.40
2019-04-07T07:30:25.030Z,13.50
2019-04-07T07:31:28.148Z,13.50
2019-04-07T07:32:34.982Z,13.60
2019-04-07T07:33:38.383Z,13.60
2019-04-07T07:34:42.214Z,13.70
2019-04-07T07:35:48.825Z,13.70
2019-04-07T07:36:53.455Z,13.70
2019-04-07T07:37:58.154Z,13.70
2019-04-07T07:39:02.150Z,13.70
2019-04-07T07:40:07.924Z,13.70
2019-04-07T07:41:10.919Z,13.80
2019-04-07T07:42:13.768Z,13.80
2019-04-07T07:43:16.702Z,13.80
2019-04-07T07:44:20.055Z,13.90
2019-04-07T07:45:22.949Z,13.90
2019-04-07T07:46:25.671Z,14.00
2019-04-07T07:47:29.646Z,14.00
2019-04-07T07:48:32.377Z,14.00
2019-04-07T07:49:39.813Z,14.10
2019-04-07T07:50:40.512Z,14.10
2019-04-07T07:51:46.949Z,14.20
2019-04-07T07:52:51.264Z,14.20
2019-04-07T07:53:52.736Z,14.30
2019-04-07T07:54:59.794Z,14.50
2019-04-07T07:56:00.903Z,14.60
2019-04-07T07:57:03.834Z,14.70
2019-04-07T07:58:07.274Z,14.90
2019-04-07T07:59:09.912Z,15.00
2019-04-07T08:00:12.583Z,15.10
2019-04-07T08:01:15.957Z,15.20
2019-04-07T08:02:19.972Z,15.30
2019-04-07T08:03:23.950Z,15.30
2019-04-07T08:04:27.615Z,15.30
2019-04-07T08:05:33.383Z,15.40
2019-04-07T08:06:38.492Z,15.50
2019-04-07T08:07:44.357Z,15.60
2019-04-07T08:08:46.877Z,15.70
2019-04-07T08:09:49.137Z,15.90
2019-04-07T08:10:56.276Z,16.00
2019-04-07T08:11:56.507Z,16.10
2019-04-07T08:12:59.742Z,16.40
2019-04-07T08:14:03.389Z,16.50
2019-04-07T08:15:07.073Z,16.70
2019-04-07T08:16:10.886Z,16.80
2019-04-07T08:17:13.710Z,16.90
2019-04-07T08:18:19.382Z,17.00
2019-04-07T08:19:21.169Z,17.00
2019-04-07T08:20:27.387Z,17.20
2019-04-07T08:21:30.403Z,17.30
2019-04-07T08:22:40.180Z,17.40
2019-04-07T08:23:38.502Z,17.50
2019-04-07T08:24:43.836Z,17.60
2019-04-07T08:25:47.140Z,17.70
2019-04-07T08:26:50.316Z,17.80
2019-04-07T08:27:53.176Z,17.80
2019-04-07T08:28:56.580Z,17.90
2019-04-07T08:30:01.572Z,18.00
2019-04-07T08:31:04.465Z,18.10
2019-04-07T08:32:07.697Z,18.10
2019-04-07T08:33:10.433Z,18.10
2019-04-07T08:34:13.243Z,18.10
2019-04-07T08:35:16.480Z,18.10
2019-04-07T08:36:19.430Z,18.20
2019-04-07T08:37:23.842Z,18.30
2019-04-07T08:38:28.223Z,18.40
2019-04-07T08:39:34.682Z,18.60
2019-04-07T08:40:36.827Z,18.50
2019-04-07T08:41:41.626Z,18.70
2019-04-07T08:42:48.310Z,18.80
2019-04-07T08:43:54.120Z,18.70
2019-04-07T08:44:57.244Z,18.90
2019-04-07T08:46:02.259Z,19.00
2019-04-07T08:47:04.505Z,19.00
2019-04-07T08:48:07.375Z,19.00
2019-04-07T08:49:10.167Z,19.10
2019-04-07T08:50:13.284Z,19.10
2019-04-07T08:51:16.228Z,19.30
2019-04-07T08:52:19.600Z,19.40
2019-04-07T08:53:22.914Z,19.30
2019-04-07T08:54:26.372Z,19.40
2019-04-07T08:55:29.855Z,19.50
2019-04-07T08:56:32.941Z,19.50
2019-04-07T08:57:35.828Z,19.40
2019-04-07T08:58:40.019Z,19.50
2019-04-07T08:59:43.214Z,19.50
2019-04-07T09:00:50.997Z,19.60
2019-04-07T09:01:54.277Z,19.60
2019-04-07T09:03:03.698Z,19.60
2019-04-07T09:04:04.443Z,19.80
2019-04-07T09:05:07.607Z,19.90
2019-04-07T09:06:10.956Z,19.80
2019-04-07T09:07:14.083Z,19.90
2019-04-07T09:08:17.925Z,19.80
2019-04-07T09:09:32.102Z,19.80
2019-04-07T09:10:34.326Z,19.90
2019-04-07T09:11:39.957Z,19.90
2019-04-07T09:12:42.870Z,19.90
2019-04-07T09:13:50.475Z,20.00
2019-04-07T09:14:53.199Z,20.10
2019-04-07T09:16:18.548Z,20.20
2019-04-07T09:17:41.075Z,20.20
2019-04-07T09:19:03.749Z,20.40
2019-04-07T09:20:34.749Z,20.50
2019-04-07T09:21:47.562Z,20.40
2019-04-07T09:23:08.102Z,20.60
2019-04-07T09:24:19.136Z,20.50
2019-04-07T09:25:47.397Z,20.50
2019-04-07T09:27:06.246Z,20.50
2019-04-07T09:28:26.592Z,20.50
2019-04-07T09:29:47.836Z,20.60
2019-04-07T09:31:08.452Z,20.70
2019-04-07T09:32:20.040Z,20.50
2019-04-07T09:33:42.216Z,20.50
2019-04-07T09:34:56.155Z,20.50
2019-04-07T09:36:22.277Z,20.20
2019-04-07T09:37:31.309Z,20.00
2019-04-07T09:39:02.765Z,19.70
2019-04-07T09:40:27.799Z,19.70
2019-04-07T09:41:52.640Z,19.60
2019-04-07T09:43:12.689Z,19.40
2019-04-07T09:44:37.936Z,19.20
2019-04-07T09:46:09.210Z,18.90
2019-04-07T09:47:48.669Z,18.80
2019-04-07T09:49:08.916Z,18.80
2019-04-07T09:50:29.928Z,18.60
2019-04-07T09:51:55.073Z,18.50
2019-04-07T09:53:29.219Z,18.40
2019-04-07T09:54:47.328Z,18.30
2019-04-07T09:56:13.034Z,18.10
2019-04-07T09:57:21.403Z,18.00
2019-04-07T09:58:50.241Z,18.00
2019-04-07T09:59:59.440Z,18.00
2019-04-07T10:01:27.758Z,18.00
2019-04-07T10:02:47.034Z,18.00
2019-04-07T10:04:01.807Z,18.00
2019-04-07T10:05:27.212Z,18.00
2019-04-07T10:06:49.919Z,18.00
2019-04-07T10:08:02.254Z,17.90
2019-04-07T10:09:17.195Z,17.90
2019-04-07T10:10:38.308Z,17.90
2019-04-07T10:11:56.738Z,17.90
2019-04-07T10:13:07.651Z,17.90
2019-04-07T10:14:30.721Z,17.90
2019-04-07T10:15:51.653Z,17.90
2019-04-07T10:17:16.606Z,17.80
2019-04-07T10:18:44.701Z,17.70
2019-04-07T10:19:57.212Z,17.70
2019-04-07T10:21:25.334Z,17.70
2019-04-07T10:22:50.587Z,17.70
2019-04-07T10:24:18.639Z,17.70
2019-04-07T10:25:48.558Z,17.70
2019-04-07T10:27:10.884Z,17.70
2019-04-07T10:28:43.034Z,17.70
2019-04-07T10:30:05.729Z,17.70
2019-04-07T10:31:23.581Z,17.70
2019-04-07T10:32:50.355Z,17.70
2019-04-07T10:34:13.217Z,17.60
2019-04-07T10:35:21.454Z,17.60
2019-04-07T10:36:42.505Z,17.60
2019-04-07T10:38:07.562Z,17.60
2019-04-07T10:39:21.139Z,17.70
2019-04-07T10:40:40.117Z,17.70
2019-04-07T10:42:18.054Z,17.70
2019-04-07T10:43:39.311Z,17.70
2019-04-07T10:44:50.440Z,17.70
2019-04-07T10:46:14.679Z,17.70
2019-04-07T10:47:36.858Z,17.70
2019-04-07T10:48:49.875Z,17.60
2019-04-07T10:50:17.959Z,17.60
2019-04-07T10:51:43.018Z,17.60
2019-04-07T10:53:03.786Z,17.60
2019-04-07T10:54:23.362Z,17.60
2019-04-07T10:55:39.603Z,17.60
2019-04-07T10:57:05.044Z,17.60
2019-04-07T10:58:27.935Z,17.50
2019-04-07T10:59:53.337Z,17.60
2019-04-07T11:01:15.780Z,17.60
2019-04-07T11:02:36.770Z,17.60
2019-04-07T11:03:53.978Z,17.60
2019-04-07T11:05:08.487Z,17.50
2019-04-07T11:06:46.162Z,17.60
2019-04-07T11:08:20.227Z,17.60
2019-04-07T11:09:41.744Z,17.60
2019-04-07T11:11:13.248Z,17.60
2019-04-07T11:12:30.481Z,17.60
2019-04-07T11:13:51.717Z,17.60
2019-04-07T11:15:04.702Z,17.70
2019-04-07T11:16:13.658Z,17.70
2019-04-07T11:17:29.226Z,17.70
2019-04-07T11:18:40.334Z,17.70
2019-04-07T11:20:01.549Z,17.70
2019-04-07T11:21:30.301Z,17.70
2019-04-07T11:22:57.534Z,17.70
2019-04-07T11:24:16.522Z,17.70
2019-04-07T11:25:38.616Z,17.70
2019-04-07T11:27:01.783Z,17.70
2019-04-07T11:28:24.132Z,17.70
2019-04-07T11:29:49.659Z,17.60
2019-04-07T11:31:21.225Z,17.60
2019-04-07T11:32:44.445Z,17.70
2019-04-07T11:33:52.510Z,17.60
2019-04-07T11:35:29.563Z,17.70
2019-04-07T11:36:41.777Z,17.70
2019-04-07T11:38:05.823Z,17.70
2019-04-07T11:39:36.203Z,17.70
2019-04-07T11:41:01.562Z,17.70
2019-04-07T11:42:30.581Z,17.60
2019-04-07T11:43:43.222Z,17.70
2019-04-07T11:45:04.968Z,17.70
2019-04-07T11:46:27.886Z,17.70
2019-04-07T11:47:49.300Z,17.70
2019-04-07T11:48:57.833Z,17.80
2019-04-07T11:50:09.319Z,17.80
2019-04-07T11:51:34.249Z,17.80
2019-04-07T11:52:49.236Z,17.80
2019-04-07T11:54:26.698Z,17.80
2019-04-07T11:55:52.164Z,17.80
2019-04-07T11:57:23.594Z,17.90
2019-04-07T11:58:51.323Z,17.90
2019-04-07T12:00:20.951Z,17.90
2019-04-07T12:01:34.937Z,17.90
2019-04-07T12:03:07.175Z,18.00
2019-04-07T12:04:38.720Z,18.00
2019-04-07T12:05:53.955Z,17.90
2019-04-07T12:07:31.403Z,17.90
2019-04-07T12:08:53.555Z,17.90
2019-04-07T12:10:24.641Z,18.00
2019-04-07T12:11:36.242Z,18.00
2019-04-07T12:12:54.881Z,18.00
2019-04-07T12:14:09.105Z,18.00
2019-04-07T12:15:45.230Z,18.10
2019-04-07T12:17:22.322Z,18.10
2019-04-07T12:19:00.167Z,18.10
2019-04-07T12:20:19.616Z,18.10
2019-04-07T12:21:39.276Z,18.10
2019-04-07T12:23:03.685Z,18.10
2019-04-07T12:24:28.641Z,18.10
2019-04-07T12:25:44.578Z,18.10
2019-04-07T12:27:05.173Z,18.10
2019-04-07T12:28:33.413Z,18.00
2019-04-07T12:30:05.442Z,18.00
2019-04-07T12:31:24.969Z,18.10
2019-04-07T12:32:50.849Z,18.10
2019-04-07T12:34:12.052Z,18.10
2019-04-07T12:35:51.633Z,18.20
2019-04-07T12:37:17.485Z,18.20
2019-04-07T12:38:36.028Z,18.20
2019-04-07T12:39:50.905Z,18.20
2019-04-07T12:41:15.201Z,18.20
2019-04-07T12:42:33.324Z,18.30
2019-04-07T12:44:08.062Z,18.30
2019-04-07T12:45:29.994Z,18.30
2019-04-07T12:46:44.248Z,18.30
2019-04-07T12:48:03.256Z,18.30
2019-04-07T12:49:20.666Z,18.30
2019-04-07T12:50:42.639Z,18.30
2019-04-07T12:52:20.623Z,18.40
2019-04-07T12:53:49.039Z,18.40
2019-04-07T12:55:04.666Z,18.50
2019-04-07T12:56:18.082Z,18.60
2019-04-07T12:57:35.430Z,18.60
2019-04-07T12:59:04.442Z,18.60
2019-04-07T13:00:23.906Z,18.60
2019-04-07T13:01:48.530Z,18.60
2019-04-07T13:02:57.407Z,18.60
2019-04-07T13:04:32.032Z,18.60
2019-04-07T13:06:00.669Z,18.60
2019-04-07T13:07:19.503Z,18.50
2019-04-07T13:08:49.308Z,18.50
2019-04-07T13:10:09.163Z,18.50
2019-04-07T13:11:39.356Z,18.50
2019-04-07T13:12:59.083Z,18.40
2019-04-07T13:14:23.195Z,18.40
2019-04-07T13:15:48.311Z,18.40
2019-04-07T13:17:01.285Z,18.40
2019-04-07T13:18:31.597Z,18.30
2019-04-07T13:19:47.686Z,18.30
2019-04-07T13:21:15.522Z,18.30
2019-04-07T13:22:43.860Z,18.20
2019-04-07T13:24:12.825Z,18.20
2019-04-07T13:25:32.140Z,18.20
2019-04-07T13:26:43.506Z,18.10
2019-04-07T13:27:56.199Z,18.20
2019-04-07T13:29:24.025Z,18.20
2019-04-07T13:30:37.431Z,18.10
2019-04-07T13:31:53.804Z,18.00
2019-04-07T13:33:26.430Z,18.00
2019-04-07T13:34:43.951Z,18.00
2019-04-07T13:35:56.579Z,18.00
2019-04-07T13:37:22.059Z,18.00
2019-04-07T13:38:44.641Z,18.00
2019-04-07T13:39:56.708Z,18.00
2019-04-07T13:41:36.682Z,18.00
2019-04-07T13:43:06.833Z,18.00
2019-04-07T13:44:16.148Z,18.00
2019-04-07T13:45:25.692Z,17.90
2019-04-07T13:46:48.993Z,17.80
2019-04-07T13:48:11.576Z,17.70
2019-04-07T13:49:33.295Z,17.50
2019-04-07T13:51:02.161Z,17.30
2019-04-07T13:52:17.880Z,17.20
2019-04-07T13:53:52.463Z,17.10
2019-04-07T13:55:13.040Z,17.10
2019-04-07T13:56:52.179Z,17.00
2019-04-07T13:58:10.910Z,17.10
2019-04-07T13:59:32.470Z,17.10
2019-04-07T14:00:58.383Z,17.10
2019-04-07T14:02:19.706Z,17.10
2019-04-07T14:03:51.464Z,17.10
2019-04-07T14:05:14.964Z,17.00
2019-04-07T14:06:43.559Z,17.00
2019-04-07T14:08:07.078Z,17.00
2019-04-07T14:09:32.492Z,17.00
2019-04-07T14:11:01.510Z,16.90
2019-04-07T14:12:30.986Z,16.90
2019-04-07T14:14:06.897Z,17.00
2019-04-07T14:15:19.361Z,17.00
2019-04-07T14:16:34.658Z,17.10
2019-04-07T14:17:56.891Z,17.20
2019-04-07T14:19:12.416Z,17.20
2019-04-07T14:20:22.636Z,17.30
2019-04-07T14:21:40.014Z,17.30
2019-04-07T14:22:55.505Z,17.30
2019-04-07T14:24:07.780Z,17.40
2019-04-07T14:25:49.434Z,17.40
2019-04-07T14:27:12.206Z,17.50
2019-04-07T14:28:30.878Z,17.60
2019-04-07T14:30:03.639Z,17.60
2019-04-07T14:31:25.147Z,17.60
2019-04-07T14:32:38.792Z,17.60
2019-04-07T14:33:58.918Z,17.60
2019-04-07T14:35:24.522Z,17.60
2019-04-07T14:36:42.715Z,17.60
2019-04-07T14:38:05.218Z,17.70
2019-04-07T14:39:18.816Z,17.70
2019-04-07T14:40:46.702Z,17.70
2019-04-07T14:42:09.163Z,17.70
2019-04-07T14:43:27.805Z,17.80
2019-04-07T14:44:45.729Z,17.80
2019-04-07T14:46:10.802Z,17.80
2019-04-07T14:47:42.486Z,17.80
2019-04-07T14:49:04.365Z,17.80
2019-04-07T14:50:26.632Z,17.90
2019-04-07T14:51:47.204Z,17.90
2019-04-07T14:53:17.845Z,17.90
2019-04-07T14:54:37.767Z,17.90
2019-04-07T14:56:07.780Z,17.90
2019-04-07T14:57:17.006Z,17.90
2019-04-07T14:58:39.385Z,17.90
2019-04-07T15:00:02.121Z,17.90
2019-04-07T15:01:28.157Z,18.00
2019-04-07T15:02:30.944Z,18.00
2019-04-07T15:03:33.620Z,18.00
2019-04-07T15:04:41.923Z,18.00
2019-04-07T15:05:46.188Z,18.00
2019-04-07T15:06:59.197Z,18.00
2019-04-07T15:08:10.624Z,18.00
2019-04-07T15:09:30.573Z,18.00
2019-04-07T15:10:40.797Z,18.00
2019-04-07T15:12:16.925Z,18.00
2019-04-07T15:13:17.117Z,18.00
2019-04-07T15:14:21.529Z,18.00
2019-04-07T15:15:24.764Z,17.90
2019-04-07T15:16:27.478Z,17.90
2019-04-07T15:17:30.182Z,17.90
2019-04-07T15:18:32.894Z,17.90
2019-04-07T15:19:36.222Z,17.90
2019-04-07T15:20:40.820Z,17.90
2019-04-07T15:21:44.107Z,17.90
2019-04-07T15:22:48.463Z,17.80
2019-04-07T15:23:51.834Z,17.80
2019-04-07T15:24:54.876Z,17.80
2019-04-07T15:25:57.942Z,17.80
2019-04-07T15:27:00.810Z,17.90
2019-04-07T15:28:04.337Z,17.90
2019-04-07T15:29:10.778Z,17.90
2019-04-07T15:30:15.592Z,17.90
2019-04-07T15:31:19.449Z,17.90
2019-04-07T15:32:27.742Z,17.90
2019-04-07T15:33:30.955Z,17.90
2019-04-07T15:34:32.137Z,17.90
2019-04-07T15:35:35.255Z,17.90
2019-04-07T15:36:38.603Z,17.90
2019-04-07T15:37:41.831Z,17.80
2019-04-07T15:38:44.533Z,17.90
2019-04-07T15:39:47.119Z,17.90
2019-04-07T15:40:50.573Z,17.90
2019-04-07T15:41:53.649Z,17.90
2019-04-07T15:42:56.882Z,18.00
2019-04-07T15:44:00.394Z,17.90
2019-04-07T15:45:04.910Z,17.90
2019-04-07T15:46:09.607Z,17.90
2019-04-07T15:47:12.277Z,17.90